Washington, District of Columbia
Traffic Map
Current Weather Conditions
Washington, District of Columbia
Overcast
Overcast
14°
Feels Like: 14°
Wind Chill: 14° Ceiling: 4500
Heat Index: 14° Visibility: 10mi
Dew Point: Wind: 13mph
Humidity: 74% Direction: 330° (NNW)
Pressure: 29.93in Gusts: 0mph
Raw Report DataKDCA 222152Z 33011KT 10SM SCT037 BKN045 OVC090 14/09 A2993 RMK AO2 SLP136 T01390094
Traffic Incident Summary
Active as of:
Severity:
Category:
InformationThere was an issue retrieving the traffic information for this location. Please try a different location or try again shortly.
Advertisements
Track Severe Weather on mobile